sensor_id;sensor_type;location;lat;lon;timestamp;temperature;humidity
47090;DHT22;32840;52.516;13.294;2023-04-26T00:00:27;7.70;93.50
47090;DHT22;32840;52.516;13.294;2023-04-26T00:03:12;7.70;94.00
47090;DHT22;32840;52.516;13.294;2023-04-26T00:05:59;7.60;94.50
47090;DHT22;32840;52.516;13.294;2023-04-26T00:08:52;7.70;94.90
47090;DHT22;32840;52.516;13.294;2023-04-26T00:11:36;7.70;95.10
47090;DHT22;32840;52.516;13.294;2023-04-26T00:14:21;7.70;95.40
47090;DHT22;32840;52.516;13.294;2023-04-26T00:17:06;7.60;95.90
47090;DHT22;32840;52.516;13.294;2023-04-26T00:19:51;7.60;96.40
47090;DHT22;32840;52.516;13.294;2023-04-26T00:22:36;7.60;96.60
47090;DHT22;32840;52.516;13.294;2023-04-26T00:25:23;7.60;97.10
47090;DHT22;32840;52.516;13.294;2023-04-26T00:28:08;7.50;97.60
47090;DHT22;32840;52.516;13.294;2023-04-26T00:30:53;7.50;98.30
47090;DHT22;32840;52.516;13.294;2023-04-26T00:33:37;7.40;99.10
47090;DHT22;32840;52.516;13.294;2023-04-26T00:36:22;7.40;99.90
47090;DHT22;32840;52.516;13.294;2023-04-26T00:39:07;7.40;99.90
47090;DHT22;32840;52.516;13.294;2023-04-26T00:41:53;7.40;99.90
47090;DHT22;32840;52.516;13.294;2023-04-26T00:44:38;7.30;99.90
47090;DHT22;32840;52.516;13.294;2023-04-26T00:47:26;7.30;99.90
47090;DHT22;32840;52.516;13.294;2023-04-26T00:50:14;7.30;99.90
47090;DHT22;32840;52.516;13.294;2023-04-26T00:52:58;7.30;99.90
47090;DHT22;32840;52.516;13.294;2023-04-26T00:55:44;7.20;99.90
47090;DHT22;32840;52.516;13.294;2023-04-26T00:58:29;7.20;99.90
47090;DHT22;32840;52.516;13.294;2023-04-26T01:01:14;7.20;99.90
47090;DHT22;32840;52.516;13.294;2023-04-26T01:03:59;7.20;99.90
47090;DHT22;32840;52.516;13.294;2023-04-26T01:06:44;7.20;99.90
47090;DHT22;32840;52.516;13.294;2023-04-26T01:09:31;7.20;99.90
47090;DHT22;32840;52.516;13.294;2023-04-26T01:12:17;7.20;99.90
47090;DHT22;32840;52.516;13.294;2023-04-26T01:15:03;7.10;99.90
47090;DHT22;32840;52.516;13.294;2023-04-26T01:17:49;7.10;99.90
47090;DHT22;32840;52.516;13.294;2023-04-26T01:20:34;7.00;99.90
47090;DHT22;32840;52.516;13.294;2023-04-26T01:23:19;6.90;99.90
47090;DHT22;32840;52.516;13.294;2023-04-26T01:26:05;7.00;99.90
47090;DHT22;32840;52.516;13.294;2023-04-26T01:28:50;6.90;99.90
47090;DHT22;32840;52.516;13.294;2023-04-26T01:31:34;6.90;99.90
47090;DHT22;32840;52.516;13.294;2023-04-26T01:34:19;6.80;99.90
47090;DHT22;32840;52.516;13.294;2023-04-26T01:37:04;7.00;99.90
47090;DHT22;32840;52.516;13.294;2023-04-26T01:39:51;6.90;99.90
47090;DHT22;32840;52.516;13.294;2023-04-26T01:42:36;6.90;99.90
47090;DHT22;32840;52.516;13.294;2023-04-26T01:45:21;6.80;99.90
47090;DHT22;32840;52.516;13.294;2023-04-26T01:48:07;6.80;99.90
47090;DHT22;32840;52.516;13.294;2023-04-26T01:50:52;6.80;99.90
47090;DHT22;32840;52.516;13.294;2023-04-26T01:53:37;6.90;99.90
47090;DHT22;32840;52.516;13.294;2023-04-26T01:56:26;6.80;99.90
47090;DHT22;32840;52.516;13.294;2023-04-26T01:59:12;6.80;99.90
47090;DHT22;32840;52.516;13.294;2023-04-26T02:01:57;6.80;99.90
47090;DHT22;32840;52.516;13.294;2023-04-26T02:04:42;6.70;99.90
47090;DHT22;32840;52.516;13.294;2023-04-26T02:07:27;6.70;99.90
47090;DHT22;32840;52.516;13.294;2023-04-26T02:10:12;6.70;99.90
47090;DHT22;32840;52.516;13.294;2023-04-26T02:12:57;6.60;99.90
47090;DHT22;32840;52.516;13.294;2023-04-26T02:15:46;6.60;99.90
47090;DHT22;32840;52.516;13.294;2023-04-26T02:18:32;6.60;99.90
47090;DHT22;32840;52.516;13.294;2023-04-26T02:21:17;6.60;99.90
47090;DHT22;32840;52.516;13.294;2023-04-26T02:24:02;6.60;99.90
47090;DHT22;32840;52.516;13.294;2023-04-26T02:26:48;6.50;99.90
47090;DHT22;32840;52.516;13.294;2023-04-26T02:29:33;6.60;99.90
47090;DHT22;32840;52.516;13.294;2023-04-26T02:32:22;6.50;99.90
47090;DHT22;32840;52.516;13.294;2023-04-26T02:35:07;6.40;99.90
47090;DHT22;32840;52.516;13.294;2023-04-26T02:37:52;6.40;99.90
47090;DHT22;32840;52.516;13.294;2023-04-26T02:40:37;6.40;99.90
47090;DHT22;32840;52.516;13.294;2023-04-26T02:43:22;6.40;99.90
47090;DHT22;32840;52.516;13.294;2023-04-26T02:46:07;6.40;99.90
47090;DHT22;32840;52.516;13.294;2023-04-26T02:48:52;6.40;99.90
47090;DHT22;32840;52.516;13.294;2023-04-26T02:51:37;6.50;99.90
47090;DHT22;32840;52.516;13.294;2023-04-26T02:54:22;6.50;99.90
47090;DHT22;32840;52.516;13.294;2023-04-26T02:57:07;6.50;99.90
47090;DHT22;32840;52.516;13.294;2023-04-26T02:59:52;6.60;99.90
47090;DHT22;32840;52.516;13.294;2023-04-26T03:02:37;6.50;99.90
47090;DHT22;32840;52.516;13.294;2023-04-26T03:05:22;6.40;99.90
47090;DHT22;32840;52.516;13.294;2023-04-26T03:08:07;6.30;99.90
47090;DHT22;32840;52.516;13.294;2023-04-26T03:10:54;6.30;99.90
47090;DHT22;32840;52.516;13.294;2023-04-26T03:13:40;6.30;99.90
47090;DHT22;32840;52.516;13.294;2023-04-26T03:16:27;6.20;99.90
47090;DHT22;32840;52.516;13.294;2023-04-26T03:19:13;6.20;99.90
47090;DHT22;32840;52.516;13.294;2023-04-26T03:21:58;6.20;99.90
47090;DHT22;32840;52.516;13.294;2023-04-26T03:24:47;6.20;99.90
47090;DHT22;32840;52.516;13.294;2023-04-26T03:27:34;6.20;99.90
47090;DHT22;32840;52.516;13.294;2023-04-26T03:30:20;6.20;99.90
47090;DHT22;32840;52.516;13.294;2023-04-26T03:33:05;6.10;99.90
47090;DHT22;32840;52.516;13.294;2023-04-26T03:35:50;6.10;99.90
47090;DHT22;32840;52.516;13.294;2023-04-26T03:38:34;6.00;99.90
47090;DHT22;32840;52.516;13.294;2023-04-26T03:41:19;6.00;99.90
47090;DHT22;32840;52.516;13.294;2023-04-26T03:44:04;6.00;99.90
47090;DHT22;32840;52.516;13.294;2023-04-26T03:46:50;6.00;99.90
47090;DHT22;32840;52.516;13.294;2023-04-26T03:49:36;6.00;99.90
47090;DHT22;32840;52.516;13.294;2023-04-26T03:52:21;6.00;99.90
47090;DHT22;32840;52.516;13.294;2023-04-26T03:55:08;6.10;99.90
47090;DHT22;32840;52.516;13.294;2023-04-26T03:57:53;6.00;99.90
47090;DHT22;32840;52.516;13.294;2023-04-26T04:00:39;6.00;99.90
47090;DHT22;32840;52.516;13.294;2023-04-26T04:03:24;6.00;99.90
47090;DHT22;32840;52.516;13.294;2023-04-26T04:06:09;6.10;99.90
47090;DHT22;32840;52.516;13.294;2023-04-26T04:08:54;6.00;99.90
47090;DHT22;32840;52.516;13.294;2023-04-26T04:11:39;5.90;99.90
47090;DHT22;32840;52.516;13.294;2023-04-26T04:14:24;6.00;99.90
47090;DHT22;32840;52.516;13.294;2023-04-26T04:17:11;6.00;99.90
47090;DHT22;32840;52.516;13.294;2023-04-26T04:19:57;6.00;99.90
47090;DHT22;32840;52.516;13.294;2023-04-26T04:22:43;5.90;99.90
47090;DHT22;32840;52.516;13.294;2023-04-26T04:25:28;5.90;99.90
47090;DHT22;32840;52.516;13.294;2023-04-26T04:28:13;5.90;99.90
47090;DHT22;32840;52.516;13.294;2023-04-26T04:30:58;5.90;99.90
47090;DHT22;32840;52.516;13.294;2023-04-26T04:33:45;6.10;99.90
47090;DHT22;32840;52.516;13.294;2023-04-26T04:36:30;6.10;99.90
47090;DHT22;32840;52.516;13.294;2023-04-26T04:39:17;6.10;99.90
47090;DHT22;32840;52.516;13.294;2023-04-26T04:42:02;6.20;99.90
47090;DHT22;32840;52.516;13.294;2023-04-26T04:44:47;6.20;99.90
47090;DHT22;32840;52.516;13.294;2023-04-26T04:47:35;6.20;99.90
47090;DHT22;32840;52.516;13.294;2023-04-26T04:50:21;6.20;99.90
47090;DHT22;32840;52.516;13.294;2023-04-26T04:53:07;6.20;99.90
47090;DHT22;32840;52.516;13.294;2023-04-26T04:55:56;6.20;99.90
47090;DHT22;32840;52.516;13.294;2023-04-26T04:58:41;6.20;99.90
47090;DHT22;32840;52.516;13.294;2023-04-26T05:01:26;6.20;99.90
47090;DHT22;32840;52.516;13.294;2023-04-26T05:04:11;6.20;99.90
47090;DHT22;32840;52.516;13.294;2023-04-26T05:06:55;6.30;99.90
47090;DHT22;32840;52.516;13.294;2023-04-26T05:09:41;6.40;99.90
47090;DHT22;32840;52.516;13.294;2023-04-26T05:12:27;6.30;99.90
47090;DHT22;32840;52.516;13.294;2023-04-26T05:15:12;6.30;99.90
47090;DHT22;32840;52.516;13.294;2023-04-26T05:17:56;6.40;99.90
47090;DHT22;32840;52.516;13.294;2023-04-26T05:20:43;6.40;99.90
47090;DHT22;32840;52.516;13.294;2023-04-26T05:23:29;6.40;99.90
47090;DHT22;32840;52.516;13.294;2023-04-26T05:26:15;6.50;99.90
47090;DHT22;32840;52.516;13.294;2023-04-26T05:29:00;6.50;99.90
47090;DHT22;32840;52.516;13.294;2023-04-26T05:31:46;6.50;99.90
47090;DHT22;32840;52.516;13.294;2023-04-26T05:34:31;6.50;99.90
47090;DHT22;32840;52.516;13.294;2023-04-26T05:37:16;6.50;99.90
47090;DHT22;32840;52.516;13.294;2023-04-26T05:40:02;6.50;99.90
47090;DHT22;32840;52.516;13.294;2023-04-26T05:42:49;6.50;99.90
47090;DHT22;32840;52.516;13.294;2023-04-26T05:45:34;6.70;99.90
47090;DHT22;32840;52.516;13.294;2023-04-26T05:48:22;6.70;99.90
47090;DHT22;32840;52.516;13.294;2023-04-26T05:51:07;6.70;99.90
47090;DHT22;32840;52.516;13.294;2023-04-26T05:53:52;6.80;99.90
47090;DHT22;32840;52.516;13.294;2023-04-26T05:56:37;6.80;99.90
47090;DHT22;32840;52.516;13.294;2023-04-26T05:59:22;6.90;99.90
47090;DHT22;32840;52.516;13.294;2023-04-26T06:02:07;7.00;99.90
47090;DHT22;32840;52.516;13.294;2023-04-26T06:04:52;7.00;99.90
47090;DHT22;32840;52.516;13.294;2023-04-26T06:07:37;7.10;99.90
47090;DHT22;32840;52.516;13.294;2023-04-26T06:10:23;7.10;99.90
47090;DHT22;32840;52.516;13.294;2023-04-26T06:13:08;7.00;99.90
47090;DHT22;32840;52.516;13.294;2023-04-26T06:15:53;7.10;99.90
47090;DHT22;32840;52.516;13.294;2023-04-26T06:18:38;7.20;99.90
47090;DHT22;32840;52.516;13.294;2023-04-26T06:21:23;7.30;99.90
47090;DHT22;32840;52.516;13.294;2023-04-26T06:24:08;7.40;99.90
47090;DHT22;32840;52.516;13.294;2023-04-26T06:26:55;7.40;99.90
47090;DHT22;32840;52.516;13.294;2023-04-26T06:29:40;7.40;99.90
47090;DHT22;32840;52.516;13.294;2023-04-26T06:32:27;7.50;99.90
47090;DHT22;32840;52.516;13.294;2023-04-26T06:35:12;7.50;99.90
47090;DHT22;32840;52.516;13.294;2023-04-26T06:37:56;7.50;99.90
47090;DHT22;32840;52.516;13.294;2023-04-26T06:40:41;7.60;99.90
47090;DHT22;32840;52.516;13.294;2023-04-26T06:43:30;7.50;99.90
47090;DHT22;32840;52.516;13.294;2023-04-26T06:46:16;7.60;99.90
47090;DHT22;32840;52.516;13.294;2023-04-26T06:49:01;7.70;99.90
47090;DHT22;32840;52.516;13.294;2023-04-26T06:51:46;7.70;99.90
47090;DHT22;32840;52.516;13.294;2023-04-26T06:54:31;7.80;99.90
47090;DHT22;32840;52.516;13.294;2023-04-26T06:57:18;8.00;99.90
47090;DHT22;32840;52.516;13.294;2023-04-26T07:00:06;8.00;99.90
47090;DHT22;32840;52.516;13.294;2023-04-26T07:02:53;7.90;99.90
47090;DHT22;32840;52.516;13.294;2023-04-26T07:05:39;8.10;99.90
47090;DHT22;32840;52.516;13.294;2023-04-26T07:08:29;8.10;99.90
47090;DHT22;32840;52.516;13.294;2023-04-26T07:11:14;8.10;99.90
47090;DHT22;32840;52.516;13.294;2023-04-26T07:14:00;8.10;99.90
47090;DHT22;32840;52.516;13.294;2023-04-26T07:16:46;8.30;99.90
47090;DHT22;32840;52.516;13.294;2023-04-26T07:19:30;8.40;99.90
47090;DHT22;32840;52.516;13.294;2023-04-26T07:22:16;8.40;99.90
47090;DHT22;32840;52.516;13.294;2023-04-26T07:25:01;8.40;99.90
47090;DHT22;32840;52.516;13.294;2023-04-26T07:27:46;8.40;99.90
47090;DHT22;32840;52.516;13.294;2023-04-26T07:30:31;8.50;99.90
47090;DHT22;32840;52.516;13.294;2023-04-26T07:33:16;8.50;99.90
47090;DHT22;32840;52.516;13.294;2023-04-26T07:36:02;8.70;99.90
47090;DHT22;32840;52.516;13.294;2023-04-26T07:38:47;9.10;99.90
47090;DHT22;32840;52.516;13.294;2023-04-26T07:41:32;9.40;99.90
47090;DHT22;32840;52.516;13.294;2023-04-26T07:44:17;9.50;99.90
47090;DHT22;32840;52.516;13.294;2023-04-26T07:47:02;9.70;99.90
47090;DHT22;32840;52.516;13.294;2023-04-26T07:49:52;9.80;99.90
47090;DHT22;32840;52.516;13.294;2023-04-26T07:52:37;10.20;99.90
47090;DHT22;32840;52.516;13.294;2023-04-26T07:55:22;10.20;99.90
47090;DHT22;32840;52.516;13.294;2023-04-26T07:58:08;10.20;99.90
47090;DHT22;32840;52.516;13.294;2023-04-26T08:00:56;10.80;99.40
47090;DHT22;32840;52.516;13.294;2023-04-26T08:03:41;10.80;97.70
47090;DHT22;32840;52.516;13.294;2023-04-26T08:06:26;10.70;96.80
47090;DHT22;32840;52.516;13.294;2023-04-26T08:09:12;10.70;97.10
47090;DHT22;32840;52.516;13.294;2023-04-26T08:11:57;10.60;96.50
47090;DHT22;32840;52.516;13.294;2023-04-26T08:14:42;10.50;96.50
47090;DHT22;32840;52.516;13.294;2023-04-26T08:17:27;10.60;96.90
47090;DHT22;32840;52.516;13.294;2023-04-26T08:20:12;10.80;96.10
47090;DHT22;32840;52.516;13.294;2023-04-26T08:22:58;10.90;96.10
47090;DHT22;32840;52.516;13.294;2023-04-26T08:25:43;11.10;94.70
47090;DHT22;32840;52.516;13.294;2023-04-26T08:28:28;10.60;94.40
47090;DHT22;32840;52.516;13.294;2023-04-26T08:31:13;10.00;96.50
47090;DHT22;32840;52.516;13.294;2023-04-26T08:33:58;9.60;99.00
47090;DHT22;32840;52.516;13.294;2023-04-26T08:36:43;9.60;99.90
47090;DHT22;32840;52.516;13.294;2023-04-26T08:39:28;9.70;99.90
47090;DHT22;32840;52.516;13.294;2023-04-26T08:42:15;10.10;99.90
47090;DHT22;32840;52.516;13.294;2023-04-26T08:45:01;10.50;99.90
47090;DHT22;32840;52.516;13.294;2023-04-26T08:48:21;11.00;99.90
47090;DHT22;32840;52.516;13.294;2023-04-26T08:51:01;11.40;98.60
47090;DHT22;32840;52.516;13.294;2023-04-26T08:53:48;11.40;96.00
47090;DHT22;32840;52.516;13.294;2023-04-26T08:56:38;11.50;97.30
47090;DHT22;32840;52.516;13.294;2023-04-26T08:59:24;11.60;94.00
47090;DHT22;32840;52.516;13.294;2023-04-26T09:02:10;11.20;93.20
47090;DHT22;32840;52.516;13.294;2023-04-26T09:04:57;10.80;92.60
47090;DHT22;32840;52.516;13.294;2023-04-26T09:07:46;10.40;92.90
47090;DHT22;32840;52.516;13.294;2023-04-26T09:10:31;10.50;93.50
47090;DHT22;32840;52.516;13.294;2023-04-26T09:13:16;10.90;92.10
47090;DHT22;32840;52.516;13.294;2023-04-26T09:16:02;11.40;91.20
47090;DHT22;32840;52.516;13.294;2023-04-26T09:18:51;11.70;87.10
47090;DHT22;32840;52.516;13.294;2023-04-26T09:21:42;11.30;88.30
47090;DHT22;32840;52.516;13.294;2023-04-26T09:27:41;11.00;90.40
47090;DHT22;32840;52.516;13.294;2023-04-26T09:30:31;11.00;88.30
47090;DHT22;32840;52.516;13.294;2023-04-26T09:33:22;10.90;88.90
47090;DHT22;32840;52.516;13.294;2023-04-26T09:36:11;11.20;87.00
47090;DHT22;32840;52.516;13.294;2023-04-26T09:38:57;11.70;84.10
47090;DHT22;32840;52.516;13.294;2023-04-26T09:41:43;11.80;82.90
47090;DHT22;32840;52.516;13.294;2023-04-26T09:44:29;11.60;81.90
47090;DHT22;32840;52.516;13.294;2023-04-26T09:47:15;11.90;80.80
47090;DHT22;32840;52.516;13.294;2023-04-26T09:50:01;12.10;78.50
47090;DHT22;32840;52.516;13.294;2023-04-26T09:52:46;11.80;76.10
47090;DHT22;32840;52.516;13.294;2023-04-26T09:55:31;11.70;77.10
47090;DHT22;32840;52.516;13.294;2023-04-26T09:58:20;11.80;76.80
47090;DHT22;32840;52.516;13.294;2023-04-26T10:01:07;12.00;74.40
47090;DHT22;32840;52.516;13.294;2023-04-26T10:03:55;12.10;73.80
47090;DHT22;32840;52.516;13.294;2023-04-26T10:06:42;12.10;73.40
47090;DHT22;32840;52.516;13.294;2023-04-26T10:09:27;12.20;73.60
47090;DHT22;32840;52.516;13.294;2023-04-26T10:12:13;12.20;73.90
47090;DHT22;32840;52.516;13.294;2023-04-26T10:14:58;12.40;70.90
47090;DHT22;32840;52.516;13.294;2023-04-26T10:17:45;12.10;69.10
47090;DHT22;32840;52.516;13.294;2023-04-26T10:20:30;11.80;69.20
47090;DHT22;32840;52.516;13.294;2023-04-26T10:23:20;11.40;70.70
47090;DHT22;32840;52.516;13.294;2023-04-26T10:26:05;11.10;70.50
47090;DHT22;32840;52.516;13.294;2023-04-26T10:28:54;10.90;72.00
47090;DHT22;32840;52.516;13.294;2023-04-26T10:32:07;10.90;71.40
47090;DHT22;32840;52.516;13.294;2023-04-26T10:35:10;10.80;74.00
47090;DHT22;32840;52.516;13.294;2023-04-26T10:40:48;10.80;76.10
47090;DHT22;32840;52.516;13.294;2023-04-26T10:43:33;11.10;75.00
47090;DHT22;32840;52.516;13.294;2023-04-26T10:46:39;11.30;73.60
47090;DHT22;32840;52.516;13.294;2023-04-26T10:49:24;11.30;72.10
47090;DHT22;32840;52.516;13.294;2023-04-26T10:52:11;11.30;72.40
47090;DHT22;32840;52.516;13.294;2023-04-26T10:55:02;11.40;73.40
47090;DHT22;32840;52.516;13.294;2023-04-26T10:57:54;11.60;72.30
47090;DHT22;32840;52.516;13.294;2023-04-26T11:01:14;11.40;72.70
47090;DHT22;32840;52.516;13.294;2023-04-26T11:04:09;11.20;73.10
47090;DHT22;32840;52.516;13.294;2023-04-26T11:06:55;11.30;72.90
47090;DHT22;32840;52.516;13.294;2023-04-26T11:09:47;11.30;73.60
47090;DHT22;32840;52.516;13.294;2023-04-26T11:12:32;11.60;73.00
47090;DHT22;32840;52.516;13.294;2023-04-26T11:15:17;11.50;71.70
47090;DHT22;32840;52.516;13.294;2023-04-26T11:18:04;11.70;72.10
47090;DHT22;32840;52.516;13.294;2023-04-26T11:20:49;11.90;71.50
47090;DHT22;32840;52.516;13.294;2023-04-26T11:23:34;12.00;69.40
47090;DHT22;32840;52.516;13.294;2023-04-26T11:26:19;11.80;66.90
47090;DHT22;32840;52.516;13.294;2023-04-26T11:29:06;11.80;67.70
47090;DHT22;32840;52.516;13.294;2023-04-26T11:31:57;12.10;67.40
47090;DHT22;32840;52.516;13.294;2023-04-26T11:34:41;12.10;66.90
47090;DHT22;32840;52.516;13.294;2023-04-26T11:37:27;11.80;66.00
47090;DHT22;32840;52.516;13.294;2023-04-26T11:40:14;11.40;67.70
47090;DHT22;32840;52.516;13.294;2023-04-26T11:43:09;11.70;69.30
47090;DHT22;32840;52.516;13.294;2023-04-26T11:45:58;11.80;69.10
47090;DHT22;32840;52.516;13.294;2023-04-26T11:48:44;11.90;69.90
47090;DHT22;32840;52.516;13.294;2023-04-26T11:51:29;11.80;68.20
47090;DHT22;32840;52.516;13.294;2023-04-26T11:54:35;11.70;69.00
47090;DHT22;32840;52.516;13.294;2023-04-26T11:57:22;11.70;69.10
47090;DHT22;32840;52.516;13.294;2023-04-26T12:00:12;11.70;68.00
47090;DHT22;32840;52.516;13.294;2023-04-26T12:03:04;11.60;67.90
47090;DHT22;32840;52.516;13.294;2023-04-26T12:05:53;11.80;66.00
47090;DHT22;32840;52.516;13.294;2023-04-26T12:08:48;11.70;65.00
47090;DHT22;32840;52.516;13.294;2023-04-26T12:11:36;11.80;65.90
47090;DHT22;32840;52.516;13.294;2023-04-26T12:14:21;12.20;66.30
47090;DHT22;32840;52.516;13.294;2023-04-26T12:17:07;12.50;65.10
47090;DHT22;32840;52.516;13.294;2023-04-26T12:19:52;12.40;65.10
47090;DHT22;32840;52.516;13.294;2023-04-26T12:22:40;12.40;65.10
47090;DHT22;32840;52.516;13.294;2023-04-26T12:25:29;12.40;65.70
47090;DHT22;32840;52.516;13.294;2023-04-26T12:28:17;12.30;68.40
47090;DHT22;32840;52.516;13.294;2023-04-26T12:31:03;12.30;69.30
47090;DHT22;32840;52.516;13.294;2023-04-26T12:33:52;12.10;72.60
47090;DHT22;32840;52.516;13.294;2023-04-26T12:36:39;11.90;75.00
47090;DHT22;32840;52.516;13.294;2023-04-26T12:39:24;12.10;75.10
47090;DHT22;32840;52.516;13.294;2023-04-26T12:42:09;12.20;72.40
47090;DHT22;32840;52.516;13.294;2023-04-26T12:44:54;11.90;72.60
47090;DHT22;32840;52.516;13.294;2023-04-26T12:47:40;11.60;71.90
47090;DHT22;32840;52.516;13.294;2023-04-26T12:50:29;11.60;72.10
47090;DHT22;32840;52.516;13.294;2023-04-26T12:53:15;11.70;71.60
47090;DHT22;32840;52.516;13.294;2023-04-26T12:56:00;11.90;69.90
47090;DHT22;32840;52.516;13.294;2023-04-26T12:58:45;12.10;68.90
47090;DHT22;32840;52.516;13.294;2023-04-26T13:01:30;12.20;68.90
47090;DHT22;32840;52.516;13.294;2023-04-26T13:04:15;12.50;67.30
47090;DHT22;32840;52.516;13.294;2023-04-26T13:07:00;12.50;65.90
47090;DHT22;32840;52.516;13.294;2023-04-26T13:09:50;12.70;63.10
47090;DHT22;32840;52.516;13.294;2023-04-26T13:12:37;12.90;62.60
47090;DHT22;32840;52.516;13.294;2023-04-26T13:15:22;13.00;61.10
47090;DHT22;32840;52.516;13.294;2023-04-26T13:18:09;13.00;59.90
47090;DHT22;32840;52.516;13.294;2023-04-26T13:20:54;13.00;60.00
47090;DHT22;32840;52.516;13.294;2023-04-26T13:23:38;13.00;61.00
47090;DHT22;32840;52.516;13.294;2023-04-26T13:26:23;13.00;61.10
47090;DHT22;32840;52.516;13.294;2023-04-26T13:29:08;12.90;60.20
47090;DHT22;32840;52.516;13.294;2023-04-26T13:31:53;12.80;59.00
47090;DHT22;32840;52.516;13.294;2023-04-26T13:34:38;12.80;58.90
47090;DHT22;32840;52.516;13.294;2023-04-26T13:37:23;12.50;58.50
47090;DHT22;32840;52.516;13.294;2023-04-26T13:40:09;12.10;59.70
47090;DHT22;32840;52.516;13.294;2023-04-26T13:42:55;12.00;60.90
47090;DHT22;32840;52.516;13.294;2023-04-26T13:45:40;12.00;62.30
47090;DHT22;32840;52.516;13.294;2023-04-26T13:48:27;12.10;63.70
47090;DHT22;32840;52.516;13.294;2023-04-26T13:51:12;12.20;63.90
47090;DHT22;32840;52.516;13.294;2023-04-26T13:53:57;12.40;63.40
47090;DHT22;32840;52.516;13.294;2023-04-26T13:56:42;12.60;62.20
47090;DHT22;32840;52.516;13.294;2023-04-26T13:59:27;12.60;61.20
47090;DHT22;32840;52.516;13.294;2023-04-26T14:02:12;12.60;60.80
47090;DHT22;32840;52.516;13.294;2023-04-26T14:04:58;12.50;61.60
47090;DHT22;32840;52.516;13.294;2023-04-26T14:07:43;12.50;62.10
47090;DHT22;32840;52.516;13.294;2023-04-26T14:10:28;12.50;62.60
47090;DHT22;32840;52.516;13.294;2023-04-26T14:13:13;12.40;63.20
47090;DHT22;32840;52.516;13.294;2023-04-26T14:15:59;12.60;62.60
47090;DHT22;32840;52.516;13.294;2023-04-26T14:18:44;12.70;62.70
47090;DHT22;32840;52.516;13.294;2023-04-26T14:21:29;12.70;62.50
47090;DHT22;32840;52.516;13.294;2023-04-26T14:24:15;12.80;61.50
47090;DHT22;32840;52.516;13.294;2023-04-26T14:27:00;12.80;60.80
47090;DHT22;32840;52.516;13.294;2023-04-26T14:29:46;12.90;61.10
47090;DHT22;32840;52.516;13.294;2023-04-26T14:32:33;13.00;60.40
47090;DHT22;32840;52.516;13.294;2023-04-26T14:35:19;13.00;61.00
47090;DHT22;32840;52.516;13.294;2023-04-26T14:38:04;13.20;61.40
47090;DHT22;32840;52.516;13.294;2023-04-26T14:40:50;13.20;61.30
47090;DHT22;32840;52.516;13.294;2023-04-26T14:43:37;13.10;60.30
47090;DHT22;32840;52.516;13.294;2023-04-26T14:46:22;13.20;60.70
47090;DHT22;32840;52.516;13.294;2023-04-26T14:49:07;13.10;60.70
47090;DHT22;32840;52.516;13.294;2023-04-26T14:51:53;13.10;60.50
47090;DHT22;32840;52.516;13.294;2023-04-26T14:54:38;13.10;60.40
47090;DHT22;32840;52.516;13.294;2023-04-26T14:57:24;13.10;60.80
47090;DHT22;32840;52.516;13.294;2023-04-26T15:00:19;13.00;60.50
47090;DHT22;32840;52.516;13.294;2023-04-26T15:03:04;12.90;60.70
47090;DHT22;32840;52.516;13.294;2023-04-26T15:05:49;13.00;59.60
47090;DHT22;32840;52.516;13.294;2023-04-26T15:08:34;13.10;59.80
47090;DHT22;32840;52.516;13.294;2023-04-26T15:11:19;13.10;59.00
47090;DHT22;32840;52.516;13.294;2023-04-26T15:14:04;13.20;58.40
47090;DHT22;32840;52.516;13.294;2023-04-26T15:16:50;13.10;58.70
47090;DHT22;32840;52.516;13.294;2023-04-26T15:19:38;13.10;58.40
47090;DHT22;32840;52.516;13.294;2023-04-26T15:22:23;13.10;58.60
47090;DHT22;32840;52.516;13.294;2023-04-26T15:25:08;12.90;59.30
47090;DHT22;32840;52.516;13.294;2023-04-26T15:27:53;12.90;59.70
47090;DHT22;32840;52.516;13.294;2023-04-26T15:30:42;12.90;58.50
47090;DHT22;32840;52.516;13.294;2023-04-26T15:33:27;12.70;59.10
47090;DHT22;32840;52.516;13.294;2023-04-26T15:36:12;12.70;58.80
47090;DHT22;32840;52.516;13.294;2023-04-26T15:38:57;12.70;58.80
47090;DHT22;32840;52.516;13.294;2023-04-26T15:41:42;12.60;59.10
47090;DHT22;32840;52.516;13.294;2023-04-26T15:44:26;12.70;59.20
47090;DHT22;32840;52.516;13.294;2023-04-26T15:47:12;12.60;59.10
47090;DHT22;32840;52.516;13.294;2023-04-26T15:50:05;12.70;59.00
47090;DHT22;32840;52.516;13.294;2023-04-26T15:52:50;12.80;58.40
47090;DHT22;32840;52.516;13.294;2023-04-26T15:55:35;12.70;58.30
47090;DHT22;32840;52.516;13.294;2023-04-26T15:58:20;12.60;58.90
47090;DHT22;32840;52.516;13.294;2023-04-26T16:01:05;12.50;58.90
47090;DHT22;32840;52.516;13.294;2023-04-26T16:03:51;12.50;59.20
47090;DHT22;32840;52.516;13.294;2023-04-26T16:06:37;12.40;59.50
47090;DHT22;32840;52.516;13.294;2023-04-26T16:09:22;12.50;59.50
47090;DHT22;32840;52.516;13.294;2023-04-26T16:12:07;12.40;59.90
47090;DHT22;32840;52.516;13.294;2023-04-26T16:14:52;12.30;60.00
47090;DHT22;32840;52.516;13.294;2023-04-26T16:17:37;12.00;60.20
47090;DHT22;32840;52.516;13.294;2023-04-26T16:20:22;12.00;61.00
47090;DHT22;32840;52.516;13.294;2023-04-26T16:23:07;12.10;60.60
47090;DHT22;32840;52.516;13.294;2023-04-26T16:25:54;12.10;61.00
47090;DHT22;32840;52.516;13.294;2023-04-26T16:28:45;12.20;60.90
47090;DHT22;32840;52.516;13.294;2023-04-26T16:31:31;12.10;61.20
47090;DHT22;32840;52.516;13.294;2023-04-26T16:34:16;12.00;61.70
47090;DHT22;32840;52.516;13.294;2023-04-26T16:37:03;12.10;61.90
47090;DHT22;32840;52.516;13.294;2023-04-26T16:39:47;12.20;62.50
47090;DHT22;32840;52.516;13.294;2023-04-26T16:42:35;12.30;61.90
47090;DHT22;32840;52.516;13.294;2023-04-26T16:45:26;12.30;61.70
47090;DHT22;32840;52.516;13.294;2023-04-26T16:48:17;12.20;61.10
47090;DHT22;32840;52.516;13.294;2023-04-26T16:51:03;12.20;61.40
47090;DHT22;32840;52.516;13.294;2023-04-26T16:53:47;12.20;61.10
47090;DHT22;32840;52.516;13.294;2023-04-26T16:56:32;12.20;61.10
47090;DHT22;32840;52.516;13.294;2023-04-26T16:59:19;12.20;60.50
47090;DHT22;32840;52.516;13.294;2023-04-26T17:02:04;12.30;60.50
47090;DHT22;32840;52.516;13.294;2023-04-26T17:04:49;12.30;60.70
47090;DHT22;32840;52.516;13.294;2023-04-26T17:07:35;12.30;61.10
47090;DHT22;32840;52.516;13.294;2023-04-26T17:10:20;12.30;61.10
47090;DHT22;32840;52.516;13.294;2023-04-26T17:13:06;12.30;60.70
47090;DHT22;32840;52.516;13.294;2023-04-26T17:15:53;12.10;61.20
47090;DHT22;32840;52.516;13.294;2023-04-26T17:18:52;12.00;61.70
47090;DHT22;32840;52.516;13.294;2023-04-26T17:21:37;11.80;62.30
47090;DHT22;32840;52.516;13.294;2023-04-26T17:24:22;11.80;62.60
47090;DHT22;32840;52.516;13.294;2023-04-26T17:27:06;11.80;62.70